createdAt,value
2023-03-30T00:00:41.888Z,10.55
2023-03-30T00:03:09.898Z,11.30
2023-03-30T00:05:37.064Z,8.95
2023-03-30T00:08:04.548Z,13.55
2023-03-30T00:10:31.494Z,13.45
2023-03-30T00:12:58.448Z,12.48
2023-03-30T00:15:25.578Z,13.32
2023-03-30T00:17:52.517Z,11.30
2023-03-30T00:20:19.565Z,9.40
2023-03-30T00:22:46.819Z,10.98
2023-03-30T00:25:16.285Z,12.13
2023-03-30T00:27:43.413Z,10.38
2023-03-30T00:30:15.761Z,10.77
2023-03-30T00:32:43.961Z,10.13
2023-03-30T00:35:11.388Z,9.50
2023-03-30T00:37:38.649Z,10.65
2023-03-30T00:40:08.330Z,9.32
2023-03-30T00:42:36.359Z,10.57
2023-03-30T00:45:06.453Z,11.27
2023-03-30T00:47:45.451Z,11.25
2023-03-30T00:50:12.448Z,10.30
2023-03-30T00:52:39.824Z,12.90
2023-03-30T00:55:07.388Z,15.27
2023-03-30T00:57:38.098Z,11.77
2023-03-30T01:00:07.068Z,13.25
2023-03-30T01:02:34.312Z,17.38
2023-03-30T01:05:01.338Z,15.93
2023-03-30T01:07:28.205Z,12.60
2023-03-30T01:09:55.099Z,13.18
2023-03-30T01:12:21.983Z,14.15
2023-03-30T01:14:48.888Z,11.23
2023-03-30T01:17:46.839Z,12.35
2023-03-30T01:20:47.507Z,9.05
2023-03-30T01:24:07.948Z,10.65
2023-03-30T01:26:34.744Z,9.45
2023-03-30T01:29:16.740Z,9.52
2023-03-30T01:32:24.958Z,9.07
2023-03-30T01:35:19.375Z,9.25
2023-03-30T01:38:04.338Z,9.80
2023-03-30T01:40:50.989Z,7.95
2023-03-30T01:43:33.637Z,11.00
2023-03-30T01:46:10.803Z,7.55
2023-03-30T01:48:45.386Z,8.80
2023-03-30T01:51:26.179Z,7.57
2023-03-30T01:54:17.019Z,8.95
2023-03-30T01:56:49.029Z,6.75
2023-03-30T01:59:20.821Z,12.13
2023-03-30T02:01:47.756Z,11.85
2023-03-30T02:04:14.649Z,11.98
2023-03-30T02:06:46.099Z,6.78
2023-03-30T02:09:19.552Z,8.13
2023-03-30T02:11:48.561Z,8.32
2023-03-30T02:14:18.847Z,6.68
2023-03-30T02:16:48.190Z,8.40
2023-03-30T02:19:15.247Z,8.65
2023-03-30T02:21:43.082Z,8.63
2023-03-30T02:24:16.755Z,8.55
2023-03-30T02:26:50.024Z,6.97
2023-03-30T02:29:16.966Z,12.07
2023-03-30T02:31:48.851Z,7.75
2023-03-30T02:34:56.410Z,7.05
2023-03-30T02:38:00.637Z,11.52
2023-03-30T02:40:35.982Z,9.77
2023-03-30T02:43:30.983Z,7.43
2023-03-30T02:46:42.988Z,7.75
2023-03-30T02:49:35.683Z,7.50
2023-03-30T02:52:09.850Z,8.40
2023-03-30T02:54:49.373Z,8.88
2023-03-30T02:57:25.973Z,10.63
2023-03-30T03:00:29.311Z,10.63
2023-03-30T03:02:59.763Z,13.65
2023-03-30T03:05:26.726Z,9.45
2023-03-30T03:07:53.624Z,10.93
2023-03-30T03:10:20.528Z,9.65
2023-03-30T03:12:47.459Z,9.00
2023-03-30T03:15:14.492Z,15.63
2023-03-30T03:17:41.468Z,11.93
2023-03-30T03:20:09.255Z,11.75
2023-03-30T03:22:36.153Z,8.43
2023-03-30T03:25:03.488Z,10.10
2023-03-30T03:27:30.449Z,8.90
2023-03-30T03:29:57.392Z,10.48
2023-03-30T03:32:24.385Z,8.77
2023-03-30T03:34:51.282Z,8.63
2023-03-30T03:37:18.212Z,10.18
2023-03-30T03:39:45.057Z,8.13
2023-03-30T03:42:12.081Z,8.73
2023-03-30T03:44:38.998Z,8.90
2023-03-30T03:47:05.958Z,8.05
2023-03-30T03:49:32.820Z,9.52
2023-03-30T03:51:59.727Z,8.35
2023-03-30T03:54:26.634Z,10.23
2023-03-30T03:56:53.544Z,8.60
2023-03-30T03:59:20.510Z,7.00
2023-03-30T04:01:47.384Z,13.82
2023-03-30T04:04:14.356Z,7.72
2023-03-30T04:06:41.324Z,9.73
2023-03-30T04:09:08.235Z,8.43
2023-03-30T04:11:35.132Z,12.85
2023-03-30T04:14:02.062Z,11.35
2023-03-30T04:16:29.200Z,10.32
2023-03-30T04:18:56.261Z,8.60
2023-03-30T04:21:23.141Z,9.70
2023-03-30T04:23:49.998Z,9.48
2023-03-30T04:26:16.920Z,8.38
2023-03-30T04:28:43.775Z,7.60
2023-03-30T04:31:10.817Z,9.45
2023-03-30T04:33:37.904Z,6.47
2023-03-30T04:36:05.549Z,8.48
2023-03-30T04:38:32.521Z,11.35
2023-03-30T04:41:00.502Z,8.98
2023-03-30T04:43:27.446Z,10.45
2023-03-30T04:45:55.706Z,9.43
2023-03-30T04:48:23.654Z,8.63
2023-03-30T04:50:51.228Z,8.48
2023-03-30T04:53:18.540Z,7.15
2023-03-30T04:55:50.356Z,5.60
2023-03-30T04:58:17.420Z,8.25
2023-03-30T05:00:44.325Z,7.25
2023-03-30T05:03:11.344Z,7.60
2023-03-30T05:05:38.368Z,6.75
2023-03-30T05:08:05.614Z,9.50
2023-03-30T05:10:32.562Z,9.88
2023-03-30T05:12:59.510Z,8.82
2023-03-30T05:15:26.417Z,9.75
2023-03-30T05:17:53.334Z,7.32
2023-03-30T05:20:20.278Z,7.95
2023-03-30T05:22:47.201Z,11.02
2023-03-30T05:25:14.151Z,12.10
2023-03-30T05:27:41.086Z,9.40
2023-03-30T05:30:08.576Z,8.50
2023-03-30T05:32:35.571Z,11.90
2023-03-30T05:35:02.513Z,18.58
2023-03-30T05:37:29.399Z,24.55
2023-03-30T05:39:56.537Z,19.13
2023-03-30T05:42:23.529Z,17.23
2023-03-30T05:44:50.391Z,11.23
2023-03-30T05:47:17.290Z,9.98
2023-03-30T05:49:44.337Z,11.48
2023-03-30T05:52:11.239Z,14.10
2023-03-30T05:54:38.158Z,8.73
2023-03-30T05:57:05.085Z,8.70
2023-03-30T05:59:32.031Z,11.52
2023-03-30T06:01:58.969Z,12.65
2023-03-30T06:04:26.012Z,9.52
2023-03-30T06:06:53.208Z,14.05
2023-03-30T06:09:20.123Z,8.70
2023-03-30T06:11:47.034Z,9.00
2023-03-30T06:14:14.411Z,10.75
2023-03-30T06:16:41.553Z,8.63
2023-03-30T06:19:08.459Z,7.47
2023-03-30T06:21:35.336Z,7.32
2023-03-30T06:24:02.221Z,9.07
2023-03-30T06:26:29.144Z,9.98
2023-03-30T06:28:56.062Z,12.02
2023-03-30T06:31:23.108Z,11.95
2023-03-30T06:33:49.989Z,11.32
2023-03-30T06:36:17.012Z,7.82
2023-03-30T06:38:43.987Z,8.68
2023-03-30T06:41:10.969Z,13.45
2023-03-30T06:43:38.540Z,11.02
2023-03-30T06:46:05.874Z,9.40
2023-03-30T06:48:32.748Z,9.98
2023-03-30T06:50:59.708Z,11.52
2023-03-30T06:53:26.669Z,9.85
2023-03-30T06:55:57.841Z,11.77
2023-03-30T06:58:25.826Z,10.77
2023-03-30T07:00:53.001Z,27.58
2023-03-30T07:03:20.188Z,13.02
2023-03-30T07:05:52.732Z,20.85
2023-03-30T07:08:20.262Z,17.80
2023-03-30T07:10:48.172Z,12.15
2023-03-30T07:13:15.359Z,10.27
2023-03-30T07:15:42.300Z,13.20
2023-03-30T07:18:09.214Z,18.17
2023-03-30T07:20:36.190Z,17.73
2023-03-30T07:23:03.239Z,14.32
2023-03-30T07:25:30.286Z,15.05
2023-03-30T07:27:57.174Z,14.90
2023-03-30T07:30:24.169Z,11.15
2023-03-30T07:32:51.390Z,17.98
2023-03-30T07:35:18.606Z,9.18
2023-03-30T07:37:45.571Z,9.48
2023-03-30T07:40:14.611Z,13.93
2023-03-30T07:42:41.851Z,10.48
2023-03-30T07:45:09.753Z,9.43
2023-03-30T07:47:36.667Z,11.40
2023-03-30T07:50:04.007Z,11.27
2023-03-30T07:52:30.914Z,10.68
2023-03-30T07:54:57.811Z,12.18
2023-03-30T07:57:24.986Z,13.35
2023-03-30T07:59:51.888Z,11.30
2023-03-30T08:02:18.791Z,11.63
2023-03-30T08:04:45.911Z,12.60
2023-03-30T08:07:13.003Z,12.50
2023-03-30T08:09:40.000Z,10.43
2023-03-30T08:12:07.075Z,12.43
2023-03-30T08:14:33.984Z,11.98
2023-03-30T08:17:00.884Z,12.93
2023-03-30T08:19:27.810Z,11.68
2023-03-30T08:21:54.763Z,12.02
2023-03-30T08:24:21.703Z,13.35
2023-03-30T08:26:48.649Z,15.57
2023-03-30T08:29:15.550Z,14.00
2023-03-30T08:31:42.416Z,15.95
2023-03-30T08:34:09.350Z,14.10
2023-03-30T08:36:36.223Z,15.30
2023-03-30T08:39:03.568Z,16.65
2023-03-30T08:41:30.476Z,10.85
2023-03-30T08:44:36.789Z,15.43
2023-03-30T08:47:08.767Z,14.52
2023-03-30T08:49:46.782Z,15.88
2023-03-30T08:52:22.793Z,18.55
2023-03-30T08:54:50.834Z,16.10
2023-03-30T08:57:59.061Z,15.02
2023-03-30T09:01:06.313Z,15.38
2023-03-30T09:03:50.016Z,13.35
2023-03-30T09:06:47.754Z,10.30
2023-03-30T09:09:18.780Z,15.05
2023-03-30T09:11:46.556Z,13.63
2023-03-30T09:14:22.948Z,18.23
2023-03-30T09:17:15.883Z,14.68
2023-03-30T09:20:34.818Z,16.60
2023-03-30T09:23:02.555Z,13.73
2023-03-30T09:25:42.559Z,15.90
2023-03-30T09:28:17.947Z,13.77
2023-03-30T09:31:09.261Z,11.68
2023-03-30T09:33:52.783Z,13.50
2023-03-30T09:36:28.476Z,14.13
2023-03-30T09:38:55.401Z,17.75
2023-03-30T09:41:33.689Z,13.00
2023-03-30T09:44:00.744Z,11.93
2023-03-30T09:46:27.669Z,8.35
2023-03-30T09:48:54.625Z,11.88
2023-03-30T09:51:23.674Z,13.18
2023-03-30T09:54:01.677Z,13.73
2023-03-30T09:56:34.809Z,13.77
2023-03-30T09:59:30.769Z,16.27
2023-03-30T10:02:12.801Z,14.10
2023-03-30T10:04:51.901Z,13.57
2023-03-30T10:07:39.405Z,15.30
2023-03-30T10:10:37.286Z,13.52
2023-03-30T10:13:11.579Z,15.63
2023-03-30T10:15:40.317Z,14.25
2023-03-30T10:18:45.800Z,17.60
2023-03-30T10:21:19.927Z,18.42
2023-03-30T10:23:47.443Z,12.35
2023-03-30T10:26:17.523Z,15.90
2023-03-30T10:28:55.963Z,11.90
2023-03-30T10:31:25.545Z,15.98
2023-03-30T10:33:57.562Z,13.55
2023-03-30T10:36:29.677Z,11.55
2023-03-30T10:39:13.213Z,16.70
2023-03-30T10:41:41.015Z,14.15
2023-03-30T10:44:28.120Z,12.35
2023-03-30T10:47:21.967Z,11.55
2023-03-30T10:50:11.000Z,14.23
2023-03-30T10:52:58.358Z,15.57
2023-03-30T10:55:55.241Z,13.35
2023-03-30T10:58:35.241Z,13.38
2023-03-30T11:01:25.046Z,11.52
2023-03-30T11:04:12.450Z,13.38
2023-03-30T11:06:47.670Z,12.18
2023-03-30T11:09:18.277Z,8.05
2023-03-30T11:11:51.552Z,10.60
2023-03-30T11:14:50.604Z,10.85
2023-03-30T11:17:27.870Z,11.68
2023-03-30T11:19:58.554Z,11.38
2023-03-30T11:22:45.444Z,9.73
2023-03-30T11:25:25.122Z,13.57
2023-03-30T11:28:28.811Z,15.93
2023-03-30T11:30:58.368Z,10.05
2023-03-30T11:33:47.863Z,8.63
2023-03-30T11:36:41.458Z,11.07
2023-03-30T11:39:29.016Z,8.57
2023-03-30T11:42:09.816Z,9.55
2023-03-30T11:44:36.759Z,12.57
2023-03-30T11:47:59.366Z,11.55
2023-03-30T11:51:08.164Z,11.23
2023-03-30T11:53:56.669Z,7.93
2023-03-30T11:56:51.113Z,8.50
2023-03-30T11:59:55.192Z,5.93
2023-03-30T12:02:56.193Z,7.43
2023-03-30T12:05:35.184Z,7.85
2023-03-30T12:08:43.678Z,8.15
2023-03-30T12:11:23.526Z,5.40
2023-03-30T12:13:51.476Z,5.82
2023-03-30T12:16:44.806Z,5.03
2023-03-30T12:19:22.810Z,3.53
2023-03-30T12:22:03.677Z,7.03
2023-03-30T12:24:49.083Z,9.90
2023-03-30T12:27:16.038Z,9.75
2023-03-30T12:32:29.245Z,4.15
2023-03-30T12:34:57.923Z,5.18
2023-03-30T12:37:35.544Z,6.60
2023-03-30T12:40:08.236Z,7.65
2023-03-30T12:42:37.617Z,7.15
2023-03-30T12:45:15.826Z,5.15
2023-03-30T12:48:24.262Z,7.20
2023-03-30T12:51:19.392Z,5.72
2023-03-30T12:53:52.628Z,8.77
2023-03-30T12:56:28.311Z,8.38
2023-03-30T12:59:33.081Z,8.55
2023-03-30T13:02:05.750Z,5.72
2023-03-30T13:04:37.878Z,23.17
2023-03-30T13:07:07.630Z,24.80
2023-03-30T13:10:29.620Z,10.80
2023-03-30T13:12:57.839Z,9.35
2023-03-30T13:15:35.004Z,6.28
2023-03-30T13:18:04.746Z,4.13
2023-03-30T13:20:36.747Z,7.43
2023-03-30T13:23:09.795Z,5.80
2023-03-30T13:25:42.373Z,6.10
2023-03-30T13:28:52.345Z,6.03
2023-03-30T13:32:06.648Z,5.55
2023-03-30T13:34:58.498Z,3.33
2023-03-30T13:37:42.661Z,7.13
2023-03-30T13:40:41.599Z,8.57
2023-03-30T13:43:21.925Z,6.03
2023-03-30T13:46:29.421Z,6.55
2023-03-30T13:49:18.087Z,5.65
2023-03-30T13:51:44.947Z,7.85
2023-03-30T13:54:21.848Z,5.50
2023-03-30T13:57:33.556Z,6.88
2023-03-30T14:00:28.219Z,9.00
2023-03-30T14:02:55.266Z,6.82
2023-03-30T14:05:25.142Z,7.32
2023-03-30T14:07:58.055Z,5.88
2023-03-30T14:10:25.071Z,7.22
2023-03-30T14:12:56.042Z,8.02
2023-03-30T14:15:35.806Z,6.45
2023-03-30T14:18:02.943Z,5.85
2023-03-30T14:20:59.307Z,7.70
2023-03-30T14:23:32.231Z,7.28
2023-03-30T14:26:01.809Z,6.20
2023-03-30T14:28:29.711Z,8.80
2023-03-30T14:31:03.039Z,6.13
2023-03-30T14:33:30.444Z,7.22
2023-03-30T14:35:58.673Z,6.93
2023-03-30T14:38:45.685Z,5.95
2023-03-30T14:41:27.032Z,5.95
2023-03-30T14:43:59.874Z,4.57
2023-03-30T14:46:42.111Z,5.28
2023-03-30T14:49:29.301Z,5.25
2023-03-30T14:52:14.318Z,5.30
2023-03-30T14:54:48.673Z,8.48
2023-03-30T14:57:22.588Z,6.70
2023-03-30T15:00:00.168Z,5.43
2023-03-30T15:02:31.980Z,3.13
2023-03-30T15:04:59.207Z,3.92
2023-03-30T15:07:32.500Z,5.75
2023-03-30T15:10:00.498Z,7.55
2023-03-30T15:12:41.227Z,6.40
2023-03-30T15:15:12.094Z,4.22
2023-03-30T15:17:39.237Z,7.78
2023-03-30T15:20:07.130Z,6.30
2023-03-30T15:22:38.841Z,5.22
2023-03-30T15:25:08.743Z,3.88
2023-03-30T15:27:36.578Z,5.20
2023-03-30T15:30:04.362Z,7.07
2023-03-30T15:32:40.894Z,6.47
2023-03-30T15:35:13.846Z,5.63
2023-03-30T15:38:00.913Z,5.35
2023-03-30T15:40:37.763Z,5.30
2023-03-30T15:43:25.838Z,4.07
2023-03-30T15:45:53.730Z,3.88
2023-03-30T15:48:47.717Z,4.88
2023-03-30T15:51:31.766Z,6.15
2023-03-30T15:54:02.348Z,4.63
2023-03-30T15:56:59.731Z,4.03
2023-03-30T16:00:01.772Z,6.13
2023-03-30T16:02:31.860Z,3.20
2023-03-30T16:05:02.384Z,4.93
2023-03-30T16:07:29.454Z,5.13
2023-03-30T16:09:56.396Z,7.78
2023-03-30T16:12:29.977Z,6.13
2023-03-30T16:14:57.780Z,4.28
2023-03-30T16:17:24.782Z,3.75
2023-03-30T16:19:51.759Z,8.52
2023-03-30T16:22:18.786Z,7.15
2023-03-30T16:24:45.755Z,7.00
2023-03-30T16:27:13.209Z,9.18
2023-03-30T16:29:40.207Z,7.38
2023-03-30T16:32:07.357Z,5.82
2023-03-30T16:34:34.505Z,5.20
2023-03-30T16:37:01.560Z,5.78
2023-03-30T16:39:29.632Z,5.25
2023-03-30T16:41:56.724Z,7.88
2023-03-30T16:44:24.472Z,7.18
2023-03-30T16:46:51.875Z,6.65
2023-03-30T16:49:24.274Z,9.35
2023-03-30T16:51:52.131Z,6.80
2023-03-30T16:54:31.102Z,9.63
2023-03-30T16:57:00.357Z,8.20
2023-03-30T16:59:28.547Z,4.80
2023-03-30T17:01:55.647Z,10.25
2023-03-30T17:04:23.743Z,5.45
2023-03-30T17:06:50.714Z,4.20
2023-03-30T17:09:18.878Z,6.97
2023-03-30T17:11:47.348Z,9.00
2023-03-30T17:14:14.612Z,7.95
2023-03-30T17:16:41.588Z,9.15
2023-03-30T17:19:14.896Z,8.18
2023-03-30T17:21:41.885Z,6.63
2023-03-30T17:24:08.942Z,9.25
2023-03-30T17:26:36.001Z,8.75
2023-03-30T17:29:02.938Z,16.90
2023-03-30T17:31:29.903Z,15.48
2023-03-30T17:33:56.865Z,13.32
2023-03-30T17:36:24.958Z,7.63
2023-03-30T17:38:52.143Z,12.43
2023-03-30T17:41:20.016Z,12.15
2023-03-30T17:43:47.717Z,10.25
2023-03-30T17:46:16.894Z,10.45
2023-03-30T17:48:43.964Z,11.65
2023-03-30T17:51:10.899Z,10.55
2023-03-30T17:53:37.907Z,15.27
2023-03-30T17:56:05.771Z,10.30
2023-03-30T17:58:57.901Z,8.77
2023-03-30T18:01:24.994Z,12.30
2023-03-30T18:03:52.217Z,7.72
2023-03-30T18:06:19.361Z,7.25
2023-03-30T18:08:46.347Z,6.35
2023-03-30T18:11:13.320Z,7.65
2023-03-30T18:13:40.294Z,7.57
2023-03-30T18:16:07.385Z,13.35
2023-03-30T18:18:34.590Z,16.25
2023-03-30T18:21:03.146Z,12.75
2023-03-30T18:23:34.425Z,12.95
2023-03-30T18:26:02.646Z,16.88
2023-03-30T18:28:29.930Z,14.35
2023-03-30T18:30:57.136Z,14.27
2023-03-30T18:33:24.898Z,16.65
2023-03-30T18:35:52.448Z,16.77
2023-03-30T18:38:21.070Z,10.40
2023-03-30T18:40:51.806Z,11.93
2023-03-30T18:43:18.755Z,15.43
2023-03-30T18:45:47.163Z,9.63
2023-03-30T18:48:16.839Z,12.05
2023-03-30T18:50:50.368Z,11.75
2023-03-30T18:53:25.973Z,14.07
2023-03-30T18:55:54.701Z,12.32
2023-03-30T18:58:24.083Z,10.07
2023-03-30T19:00:51.786Z,10.50
2023-03-30T19:03:19.365Z,10.90
2023-03-30T19:05:46.527Z,13.15
2023-03-30T19:08:19.005Z,13.70
2023-03-30T19:10:46.950Z,9.10
2023-03-30T19:13:15.262Z,12.02
2023-03-30T19:15:42.319Z,13.98
2023-03-30T19:18:09.499Z,10.38
2023-03-30T19:20:38.540Z,6.93
2023-03-30T19:23:05.998Z,9.13
2023-03-30T19:25:32.976Z,9.05
2023-03-30T19:28:03.776Z,9.32
2023-03-30T19:30:34.183Z,7.82
2023-03-30T19:33:05.183Z,5.88
2023-03-30T19:35:32.531Z,10.02
2023-03-30T19:38:00.460Z,14.63
2023-03-30T19:40:27.470Z,15.45
2023-03-30T19:42:54.447Z,13.43
2023-03-30T19:45:21.980Z,15.60
2023-03-30T19:47:49.102Z,15.95
2023-03-30T19:50:18.246Z,14.88
2023-03-30T19:52:46.063Z,10.25
2023-03-30T19:55:12.984Z,10.35
2023-03-30T19:57:39.965Z,12.60
2023-03-30T20:00:08.406Z,13.70
2023-03-30T20:02:35.388Z,9.15
2023-03-30T20:05:02.409Z,10.30
2023-03-30T20:07:29.520Z,8.27
2023-03-30T20:09:56.488Z,11.57
2023-03-30T20:12:23.482Z,8.40
2023-03-30T20:14:50.533Z,8.48
2023-03-30T20:17:17.461Z,9.13
2023-03-30T20:19:44.535Z,10.65
2023-03-30T20:22:11.516Z,9.32
2023-03-30T20:24:38.520Z,10.43
2023-03-30T20:27:05.468Z,9.38
2023-03-30T20:29:32.610Z,8.30
2023-03-30T20:31:59.568Z,9.73
2023-03-30T20:34:26.722Z,15.07
2023-03-30T20:36:53.793Z,15.50
2023-03-30T20:39:20.850Z,12.25
2023-03-30T20:41:48.073Z,13.00
2023-03-30T20:44:15.026Z,10.60
2023-03-30T20:46:42.173Z,8.77
2023-03-30T20:49:10.232Z,9.05
2023-03-30T20:51:39.836Z,8.70
2023-03-30T20:54:07.100Z,7.43
2023-03-30T20:56:34.050Z,8.40
2023-03-30T20:59:01.132Z,13.15
2023-03-30T21:01:28.431Z,15.52
2023-03-30T21:03:59.515Z,19.38
2023-03-30T21:06:28.109Z,14.05
2023-03-30T21:08:57.512Z,11.85
2023-03-30T21:11:24.956Z,10.45
2023-03-30T21:13:51.941Z,8.77
2023-03-30T21:16:19.021Z,9.57
2023-03-30T21:18:45.973Z,11.70
2023-03-30T21:21:12.979Z,11.85
2023-03-30T21:23:40.245Z,12.18
2023-03-30T21:26:07.728Z,12.02
2023-03-30T21:28:35.283Z,13.20
2023-03-30T21:31:05.408Z,10.27
2023-03-30T21:33:32.505Z,9.30
2023-03-30T21:35:59.642Z,8.73
2023-03-30T21:38:27.609Z,9.60
2023-03-30T21:41:14.717Z,7.75
2023-03-30T21:43:43.983Z,8.18
2023-03-30T21:46:14.158Z,8.35
2023-03-30T21:48:42.231Z,9.60
2023-03-30T21:51:17.672Z,10.45
2023-03-30T21:53:46.071Z,7.95
2023-03-30T21:56:13.072Z,8.57
2023-03-30T21:58:40.162Z,6.43
2023-03-30T22:01:12.249Z,7.70
2023-03-30T22:03:44.027Z,8.73
2023-03-30T22:06:12.316Z,9.15
2023-03-30T22:08:39.285Z,9.23
2023-03-30T22:11:10.931Z,10.82
2023-03-30T22:13:37.860Z,13.27
2023-03-30T22:16:07.826Z,7.85
2023-03-30T22:18:35.049Z,7.60
2023-03-30T22:21:03.361Z,7.57
2023-03-30T22:23:30.740Z,11.02
2023-03-30T22:25:58.605Z,7.78
2023-03-30T22:28:25.832Z,9.73
2023-03-30T22:30:52.890Z,11.52
2023-03-30T22:33:19.908Z,8.85
2023-03-30T22:35:47.287Z,10.68
2023-03-30T22:38:14.850Z,10.98
2023-03-30T22:40:42.011Z,13.18
2023-03-30T22:43:12.840Z,10.73
2023-03-30T22:45:40.438Z,11.63
2023-03-30T22:48:07.577Z,7.15
2023-03-30T22:50:34.810Z,6.68
2023-03-30T22:53:01.900Z,8.82
2023-03-30T22:55:28.855Z,8.55
2023-03-30T22:57:55.922Z,9.23
2023-03-30T23:00:23.226Z,13.15
2023-03-30T23:02:50.632Z,10.88
2023-03-30T23:05:18.045Z,13.95
2023-03-30T23:07:44.978Z,9.48
2023-03-30T23:10:14.847Z,7.45
2023-03-30T23:12:42.959Z,5.65
2023-03-30T23:15:10.792Z,6.85
2023-03-30T23:17:37.990Z,5.78
2023-03-30T23:20:06.538Z,8.85
2023-03-30T23:22:33.581Z,10.60
2023-03-30T23:25:00.649Z,7.22
2023-03-30T23:27:27.710Z,6.88
2023-03-30T23:29:54.660Z,6.00
2023-03-30T23:32:21.625Z,5.85
2023-03-30T23:34:48.611Z,6.50
2023-03-30T23:37:15.560Z,8.98
2023-03-30T23:39:42.497Z,10.70
2023-03-30T23:42:09.449Z,9.52
2023-03-30T23:44:36.449Z,8.02
2023-03-30T23:47:03.372Z,8.25
2023-03-30T23:49:30.317Z,9.38
2023-03-30T23:51:57.368Z,8.20
2023-03-30T23:54:24.342Z,5.57
2023-03-30T23:56:51.285Z,5.88
2023-03-30T23:59:18.311Z,8.23
